Flight Track Log - Related Links

Times and Time Zones

All times are in EDT time to prevent confusion due to time zone crossing. See the UAL4846 flight status page for this flight to view local times or setup timezone preferences in your user account.

Time Position Orientation Groundspeed Altitude Reporting Facility
EDT Latitude Longitude Course Direction KTS MPH feet Rate Location/Type
Wed 06:38:32 AM 43.1075 -77.6883 124° Southeast 92 106 1,000  Level Cleveland Center
Wed 06:39:15 AM 43.0889 -77.6864 176° South 104 120 2,100 1,282 Climbing Cleveland Center
Wed 06:40:15 AM 43.0589 -77.6536 141° Southeast 174 200 3,200 1,109 Climbing Cleveland Center
Wed 06:41:14 AM 43.0408 -77.6006 115° Southeast 175 201 4,300 1,261 Climbing Cleveland Center
Wed 06:42:14 AM 43.0161 -77.5392 119° Southeast 175 201 5,700 1,400 Climbing Cleveland Center
Wed 06:43:00 AM 42.8910 -77.1486 124° Southeast  Level FlightAware Approximate
Wed 06:43:14 AM 42.9939 -77.4778 116° Southeast 175 201 7,100  Level Cleveland Center
Wed 06:44:14 AM 42.9733 -77.4164 115° Southeast 175 201 8,600 1,400 Climbing Cleveland Center
Wed 06:45:14 AM 42.9508 -77.3522 116° Southeast 175 201 9,900 1,200 Climbing Cleveland Center
Wed 06:46:14 AM 42.9281 -77.2881 116° Southeast 175 201 11,000 550 Climbing Cleveland Center
Wed 06:47:14 AM 42.9008 -77.2103 116° Southeast 199 229 11,000 33 Level Cleveland Center
Wed 06:49:15 AM 42.8331 -77.0203 116° Southeast 276 318 11,100 66 Climbing New York Center
Wed 06:50:15 AM 42.7964 -76.9292 119° Southeast 291 335 11,200  Climbing New York Center
Wed 06:51:15 AM 42.7592 -76.8408 120° Southeast 286 329 11,100 -97 Descending New York Center
Wed 06:52:19 AM 42.7197 -76.7553 122° Southeast 274 315 11,000 -50 Descending New York Center
Wed 06:53:16 AM 42.6825 -76.6672 120° Southeast 269 310 11,000  Level New York Center
Wed 06:54:15 AM 42.6431 -76.5819 122° Southeast 269 310 11,000  Level New York Center
Wed 06:55:17 AM 42.6056 -76.4969 121° Southeast 269 310 11,000  Level New York Center
Wed 06:55:52 AM 42.5797 -76.4472 125° Southeast 268 308 11,000 -63 Level Boston Center
Wed 06:56:52 AM 42.5411 -76.3603 121° Southeast 273 314 10,900 -50 Descending Boston Center
Wed 06:57:52 AM 42.5025 -76.2733 121° Southeast 273 314 10,900  Level Boston Center
Wed 06:58:52 AM 42.4694 -76.1981 121° Southeast 273 314 10,900  Level Boston Center
Wed 06:59:52 AM 42.4208 -76.0939 122° Southeast 268 308 10,900  Level Boston Center
Wed 07:00:52 AM 42.3817 -76.0128 123° Southeast 275 316 10,900  Level Boston Center
Wed 07:01:52 AM 42.3408 -75.9178 120° Southeast 267 307 10,900  Level Boston Center
Wed 07:02:52 AM 42.3039 -75.8314 120° Southeast 273 314 10,900  Level Boston Center
Wed 07:03:52 AM 42.2683 -75.7594 124° Southeast 266 306 10,900  Level Boston Center
Wed 07:04:52 AM 42.2292 -75.6761 122° Southeast 266 306 10,900  Level Boston Center
Wed 07:05:52 AM 42.1900 -75.5900 122° Southeast 266 306 10,900  Level Boston Center
Wed 07:06:52 AM 42.1506 -75.5039 122° Southeast 266 306 10,900 50 Level Boston Center
Wed 07:07:52 AM 42.1111 -75.4208 123° Southeast 266 306 11,000 50 Climbing Boston Center
Wed 07:08:52 AM 42.0717 -75.3322 121° Southeast 271 312 11,000  Level Boston Center
Wed 07:09:52 AM 42.0344 -75.2439 120° Southeast 271 312 11,000  Level Boston Center
Wed 07:10:52 AM 42.0033 -75.1503 114° Southeast 271 312 11,000  Level Boston Center
Wed 07:11:52 AM 41.9639 -75.0536 119° Southeast 276 318 11,000 -250 Level Boston Center
Wed 07:12:52 AM 41.9178 -74.9708 127° Southeast 271 312 10,500 -900 Descending Boston Center
Wed 07:13:52 AM 41.8458 -74.9206 152° Southeast 278 320 9,200 -1,150 Descending Boston Center
Wed 07:14:52 AM 41.7783 -74.8678 150° Southeast 289 333 8,200 -1,000 Descending Boston Center
Wed 07:15:52 AM 41.7106 -74.8150 150° Southeast 278 320 7,200 -600 Descending Boston Center
Wed 07:16:52 AM 41.6450 -74.7653 150° Southeast 278 320 7,000 -350 Descending Boston Center
Wed 07:17:52 AM 41.5792 -74.7158 151° Southeast 278 320 6,500 -500 Descending Boston Center
Wed 07:18:52 AM 41.5114 -74.6661 151° Southeast 278 320 6,000 -250 Descending Boston Center
Wed 07:19:52 AM 41.4456 -74.6197 152° Southeast 271 312 6,000  Level Boston Center
Wed 07:20:52 AM 41.3667 -74.6000 169° South 254 292 6,000  Level New York TRACON
Wed 07:21:46 AM 41.3167 -74.6333 207° Southwest 250 288 6,000  Level New York TRACON
Wed 07:22:46 AM 41.2500 -74.6500 191° South 244 281 6,000  Level New York TRACON
Wed 07:23:40 AM 41.2000 -74.6833 207° Southwest 247 284 6,000  Level New York TRACON
Wed 07:24:45 AM 41.1167 -74.6833 180° South 252 290 6,000 -150 Level New York TRACON
Wed 07:25:40 AM 41.0500 -74.6667 169° South 255 293 5,700 -522 Descending New York TRACON
Wed 07:26:40 AM 41.0167 -74.6000 124° Southeast 267 307 5,000 -350 Descending New York TRACON
Wed 07:27:40 AM 41.0167 -74.5000 90° East 263 303 5,000  Level New York TRACON
Wed 07:28:39 AM 41.0333 -74.4167 75° East 245 282 5,000  Level New York TRACON
Wed 07:29:34 AM 41.0333 -74.3333 90° East 249 287 5,000 -157 Level New York TRACON
Wed 07:30:34 AM 41.0000 -74.2500 118° Southeast 251 289 4,700 -500 Descending New York TRACON
Wed 07:31:34 AM 40.9500 -74.2000 143° Southeast 248 285 4,000 -700 Descending New York TRACON
Wed 07:32:34 AM 40.9000 -74.1333 135° Southeast 231 266 3,300 -579 Descending New York TRACON
Wed 07:33:28 AM 40.8833 -74.0833 114° Southeast 201 231 2,900 -316 Descending New York TRACON
Wed 07:34:28 AM 40.8333 -74.0833 180° South 178 205 2,700 -500 Descending New York TRACON
Wed 07:35:28 AM 40.7833 -74.1000 194° South 149 171 1,900 -750 Descending New York TRACON
Wed 07:36:28 AM 40.7500 -74.1333 217° Southwest 147 169 1,200 -750 Descending New York TRACON
Wed 07:37:28 AM 40.7167 -74.1500 201° Southwest 139 160 400 -800 Descending New York TRACON
Wed 07:39:00 AM 40.6925 -74.1687 175° South  Level Estimated
Wed 07:46:00 AM 40.6925 -74.1687 175° South  Level Estimated
Wed 07:47:00 AM 40.6925 -74.1687 175° South  Level Estimated

Login

Don't have an account? Register now (free) for customized features, flight alerts, and more!